Time;durP1;ratioP1;P1;durP2;ratioP2;P2;SDS_P1;SDS_P2;PMS_P1;PMS_P2;Temp;Humidity;BMP_temperature;BMP_pressure;BME280_temperature;BME280_humidity;BME280_pressure;Samples;Min_cycle;Max_cycle;Signal;HPM_P1;HPM_P2
2023/05/04 00:00:48;;;;;;;4.43;3.70;;;;;;;;;;5072350;28;20450;-60
2023/05/04 00:03:15;;;;;;;10.77;3.83;;;;;;;;;;5072206;28;20448;-60
2023/05/04 00:05:42;;;;;;;4.80;3.80;;;;;;;;;;5072529;28;20448;-60
2023/05/04 00:08:10;;;;;;;4.33;3.93;;;;;;;;;;5072218;28;20422;-60
2023/05/04 00:10:37;;;;;;;4.03;3.73;;;;;;;;;;5072270;28;20433;-60
2023/05/04 00:13:04;;;;;;;6.27;4.67;;;;;;;;;;5072085;28;20443;-60
2023/05/04 00:15:31;;;;;;;6.50;4.07;;;;;;;;;;5072144;28;20446;-60
2023/05/04 00:17:58;;;;;;;8.20;4.13;;;;;;;;;;5072111;28;20418;-60
2023/05/04 00:20:25;;;;;;;4.00;3.60;;;;;;;;;;5071959;28;20452;-60
2023/05/04 00:22:52;;;;;;;5.10;4.17;;;;;;;;;;5072009;28;20425;-60
2023/05/04 00:25:20;;;;;;;4.50;3.60;;;;;;;;;;5071903;28;20538;-60
2023/05/04 00:27:47;;;;;;;7.83;4.17;;;;;;;;;;5071867;28;20538;-60
2023/05/04 00:30:14;;;;;;;4.77;4.23;;;;;;;;;;5071974;28;20444;-60
2023/05/04 00:32:41;;;;;;;4.40;4.00;;;;;;;;;;5071900;28;20456;-60
2023/05/04 00:35:08;;;;;;;5.83;3.87;;;;;;;;;;5075652;28;20448;-60
2023/05/04 00:37:35;;;;;;;5.93;3.60;;;;;;;;;;5075720;28;20884;-60
2023/05/04 00:40:02;;;;;;;5.10;4.60;;;;;;;;;;5075478;28;20422;-60
2023/05/04 00:42:30;;;;;;;7.43;4.50;;;;;;;;;;5075593;28;20526;-60
2023/05/04 00:44:57;;;;;;;6.70;4.43;;;;;;;;;;5075681;28;20421;-60
2023/05/04 00:47:24;;;;;;;5.30;4.10;;;;;;;;;;5075411;28;20447;-60
2023/05/04 00:49:52;;;;;;;6.10;3.60;;;;;;;;;;5075090;28;21018;-60
2023/05/04 00:52:19;;;;;;;6.03;3.50;;;;;;;;;;5075523;28;20432;-60
2023/05/04 00:54:47;;;;;;;8.93;4.17;;;;;;;;;;5075035;28;20454;-60
2023/05/04 00:57:13;;;;;;;8.60;4.20;;;;;;;;;;5075201;28;20951;-60
2023/05/04 00:59:42;;;;;;;6.50;4.13;;;;;;;;;;5075424;28;21066;-60
2023/05/04 01:02:09;;;;;;;4.97;3.17;;;;;;;;;;5075208;28;20921;-60
2023/05/04 01:04:36;;;;;;;4.90;4.27;;;;;;;;;;5075278;28;20433;-60
2023/05/04 01:07:07;;;;;;;4.10;3.80;;;;;;;;;;5074967;28;20466;-60
2023/05/04 01:09:36;;;;;;;6.33;3.50;;;;;;;;;;5075260;28;20550;-60
2023/05/04 01:12:06;;;;;;;7.33;3.97;;;;;;;;;;5074949;28;20772;-60
2023/05/04 01:14:34;;;;;;;5.53;3.67;;;;;;;;;;5074915;28;20444;-60
2023/05/04 01:17:03;;;;;;;6.70;3.73;;;;;;;;;;5074791;28;20522;-60
2023/05/04 01:19:30;;;;;;;12.47;3.90;;;;;;;;;;5074862;28;20444;-60
2023/05/04 01:21:58;;;;;;;4.50;3.87;;;;;;;;;;5075004;28;20454;-61
2023/05/04 01:24:26;;;;;;;6.87;4.13;;;;;;;;;;5074862;28;20454;-60
2023/05/04 01:26:56;;;;;;;4.17;3.77;;;;;;;;;;5074764;28;20459;-60
2023/05/04 01:29:26;;;;;;;8.50;4.43;;;;;;;;;;5074640;28;20426;-60
2023/05/04 01:31:53;;;;;;;5.27;4.43;;;;;;;;;;5074552;28;20426;-60
2023/05/04 01:34:21;;;;;;;4.80;4.40;;;;;;;;;;5075094;28;20468;-61
2023/05/04 01:36:48;;;;;;;5.70;5.20;;;;;;;;;;5074907;28;20194;-60
2023/05/04 01:39:16;;;;;;;6.00;4.00;;;;;;;;;;5074600;28;20539;-60
2023/05/04 01:41:43;;;;;;;4.77;3.37;;;;;;;;;;5074348;28;20442;-60
2023/05/04 01:44:10;;;;;;;4.93;4.23;;;;;;;;;;5074170;28;20490;-60
2023/05/04 01:46:37;;;;;;;4.80;4.20;;;;;;;;;;5074330;28;20448;-60
2023/05/04 01:49:04;;;;;;;7.33;4.30;;;;;;;;;;5074408;28;20980;-60
2023/05/04 01:51:31;;;;;;;6.87;4.60;;;;;;;;;;5074354;28;20430;-60
2023/05/04 01:53:58;;;;;;;4.53;4.13;;;;;;;;;;5074274;28;21034;-60
2023/05/04 01:56:26;;;;;;;4.83;3.93;;;;;;;;;;5074027;28;20551;-60
2023/05/04 01:58:53;;;;;;;6.73;3.70;;;;;;;;;;5074168;28;20513;-60
2023/05/04 02:01:19;;;;;;;4.03;3.73;;;;;;;;;;5074165;28;20474;-60
2023/05/04 02:03:46;;;;;;;4.47;4.07;;;;;;;;;;5074317;28;20538;-61
2023/05/04 02:06:13;;;;;;;12.13;4.23;;;;;;;;;;5074113;28;20423;-63
2023/05/04 02:08:40;;;;;;;4.73;4.30;;;;;;;;;;5074053;28;20462;-60
2023/05/04 02:11:07;;;;;;;4.00;3.70;;;;;;;;;;5073970;28;20779;-60
2023/05/04 02:13:36;;;;;;;4.27;3.87;;;;;;;;;;5073832;28;20538;-61
2023/05/04 02:16:03;;;;;;;5.47;3.83;;;;;;;;;;5073617;28;20819;-60
2023/05/04 02:18:29;;;;;;;4.80;4.30;;;;;;;;;;5073858;28;20429;-60
2023/05/04 02:20:56;;;;;;;6.30;4.80;;;;;;;;;;5073831;28;20645;-60
2023/05/04 02:23:23;;;;;;;5.30;4.13;;;;;;;;;;5073537;28;20499;-60
2023/05/04 02:25:50;;;;;;;9.27;4.50;;;;;;;;;;5073609;28;20547;-60
2023/05/04 02:28:17;;;;;;;5.57;4.47;;;;;;;;;;5073543;28;20513;-60
2023/05/04 02:30:45;;;;;;;7.67;4.27;;;;;;;;;;5073959;28;20423;-60
2023/05/04 02:33:12;;;;;;;6.60;4.10;;;;;;;;;;5073595;28;20522;-60
2023/05/04 02:35:39;;;;;;;8.40;4.70;;;;;;;;;;5073580;28;20513;-60
2023/05/04 02:38:06;;;;;;;4.67;4.27;;;;;;;;;;5073471;28;20487;-60
2023/05/04 02:40:33;;;;;;;3.70;3.40;;;;;;;;;;5073317;28;20943;-59
2023/05/04 02:42:59;;;;;;;9.83;4.53;;;;;;;;;;5073105;28;20545;-60
2023/05/04 02:45:26;;;;;;;13.07;5.40;;;;;;;;;;5073804;28;20440;-60
2023/05/04 02:47:55;;;;;;;8.10;3.97;;;;;;;;;;5073358;28;20510;-60
2023/05/04 02:50:21;;;;;;;13.67;4.83;;;;;;;;;;5073228;28;20534;-60
2023/05/04 02:52:48;;;;;;;10.43;4.90;;;;;;;;;;5073294;28;20461;-60
2023/05/04 02:55:16;;;;;;;10.60;4.30;;;;;;;;;;5072930;28;20834;-60
2023/05/04 02:57:43;;;;;;;4.53;4.00;;;;;;;;;;5072535;28;20447;-60
2023/05/04 03:00:10;;;;;;;9.50;4.10;;;;;;;;;;5073107;28;20451;-60
2023/05/04 03:02:37;;;;;;;4.97;3.23;;;;;;;;;;5073237;28;20462;-60
2023/05/04 03:05:06;;;;;;;7.67;4.03;;;;;;;;;;5073150;28;20429;-60
2023/05/04 03:07:33;;;;;;;3.60;3.27;;;;;;;;;;5073043;28;20431;-60
2023/05/04 03:10:00;;;;;;;14.13;4.20;;;;;;;;;;5072802;28;20455;-60
2023/05/04 03:12:27;;;;;;;5.97;3.47;;;;;;;;;;5072795;28;20906;-59
2023/05/04 03:14:54;;;;;;;9.03;4.10;;;;;;;;;;5072934;28;20525;-60
2023/05/04 03:17:21;;;;;;;4.50;3.77;;;;;;;;;;5072918;28;20426;-60
2023/05/04 03:19:48;;;;;;;6.87;3.30;;;;;;;;;;5072622;28;20452;-60
2023/05/04 03:22:16;;;;;;;5.63;3.67;;;;;;;;;;5072672;28;20932;-60
2023/05/04 03:24:43;;;;;;;4.53;3.60;;;;;;;;;;5072578;28;20892;-60
2023/05/04 03:27:10;;;;;;;7.17;3.40;;;;;;;;;;5072778;28;20546;-60
2023/05/04 03:29:37;;;;;;;7.00;4.27;;;;;;;;;;5072720;28;20883;-60
2023/05/04 03:32:04;;;;;;;6.43;4.10;;;;;;;;;;5072643;28;20497;-60
2023/05/04 03:34:31;;;;;;;11.90;4.70;;;;;;;;;;5072592;28;20443;-60
2023/05/04 03:36:58;;;;;;;5.37;4.40;;;;;;;;;;5072476;28;20450;-60
2023/05/04 03:39:26;;;;;;;7.82;3.50;;;;;;;;;;5072664;28;20455;-60
2023/05/04 03:41:53;;;;;;;6.28;3.83;;;;;;;;;;5072464;28;20228;-60
2023/05/04 03:44:20;;;;;;;9.93;4.30;;;;;;;;;;5072534;28;20192;-60
2023/05/04 03:46:47;;;;;;;5.78;3.92;;;;;;;;;;5072420;28;20939;-60
2023/05/04 03:49:14;;;;;;;5.50;3.53;;;;;;;;;;5072339;28;20185;-60
2023/05/04 03:51:41;;;;;;;5.55;4.22;;;;;;;;;;5072532;28;20285;-60
2023/05/04 03:54:08;;;;;;;10.13;3.55;;;;;;;;;;5072468;28;20190;-60
2023/05/04 03:56:36;;;;;;;4.43;3.85;;;;;;;;;;5072405;28;20221;-60
2023/05/04 03:59:03;;;;;;;10.65;4.47;;;;;;;;;;5072264;28;20193;-60
2023/05/04 04:01:30;;;;;;;9.30;3.45;;;;;;;;;;5072365;28;20243;-60
2023/05/04 04:03:57;;;;;;;9.90;3.43;;;;;;;;;;5072383;28;20308;-60
2023/05/04 04:06:24;;;;;;;9.70;4.03;;;;;;;;;;5072336;28;20458;-60
2023/05/04 04:08:50;;;;;;;4.13;3.23;;;;;;;;;;5075964;28;20803;-60
2023/05/04 04:11:17;;;;;;;8.60;4.53;;;;;;;;;;5076448;28;20454;-60
2023/05/04 04:13:46;;;;;;;7.22;3.80;;;;;;;;;;5076092;28;20644;-60
2023/05/04 04:16:12;;;;;;;9.63;4.07;;;;;;;;;;5076274;28;20556;-60
2023/05/04 04:18:40;;;;;;;5.70;4.00;;;;;;;;;;5076123;28;20414;-60
2023/05/04 04:21:08;;;;;;;7.57;5.68;;;;;;;;;;5075917;28;20487;-60
2023/05/04 04:23:35;;;;;;;7.22;4.00;;;;;;;;;;5076328;28;20253;-60
2023/05/04 04:26:05;;;;;;;5.75;3.80;;;;;;;;;;5076054;28;20608;-60
2023/05/04 04:28:31;;;;;;;5.50;3.97;;;;;;;;;;5075985;28;20604;-60
2023/05/04 04:31:00;;;;;;;9.30;4.47;;;;;;;;;;5075871;28;20429;-60
2023/05/04 04:33:27;;;;;;;10.40;4.50;;;;;;;;;;5075951;28;20418;-60
2023/05/04 04:35:54;;;;;;;8.93;3.97;;;;;;;;;;5075868;28;20459;-60
2023/05/04 04:38:21;;;;;;;6.43;4.23;;;;;;;;;;5075833;28;20551;-60
2023/05/04 04:40:48;;;;;;;7.80;3.87;;;;;;;;;;5075721;28;20491;-59
2023/05/04 04:43:15;;;;;;;15.40;3.83;;;;;;;;;;5075516;28;20479;-60
2023/05/04 04:45:43;;;;;;;6.50;3.80;;;;;;;;;;5075509;28;20458;-60
2023/05/04 04:48:12;;;;;;;7.77;3.10;;;;;;;;;;5075803;28;20439;-60
2023/05/04 04:50:39;;;;;;;5.47;4.00;;;;;;;;;;5075713;28;20543;-60
2023/05/04 04:53:06;;;;;;;9.37;3.10;;;;;;;;;;5075533;28;20563;-60
2023/05/04 04:55:34;;;;;;;6.47;3.17;;;;;;;;;;5075352;28;20933;-60
2023/05/04 04:58:01;;;;;;;6.70;3.57;;;;;;;;;;5075333;28;20452;-60
2023/05/04 05:00:27;;;;;;;5.50;3.40;;;;;;;;;;5075220;28;20430;-60
2023/05/04 05:02:55;;;;;;;6.60;3.70;;;;;;;;;;5075368;28;20483;-60
2023/05/04 05:05:23;;;;;;;4.30;2.80;;;;;;;;;;5075291;28;20429;-60
2023/05/04 05:07:50;;;;;;;8.97;3.23;;;;;;;;;;5075404;28;20443;-60
2023/05/04 05:10:17;;;;;;;5.93;3.33;;;;;;;;;;5075333;28;20961;-60
2023/05/04 05:12:44;;;;;;;5.07;3.40;;;;;;;;;;5075195;28;20564;-60
2023/05/04 05:15:11;;;;;;;7.20;3.20;;;;;;;;;;5075299;28;20450;-60
2023/05/04 05:17:38;;;;;;;9.37;4.33;;;;;;;;;;5075145;28;20418;-60
2023/05/04 05:20:08;;;;;;;6.33;3.83;;;;;;;;;;5074339;28;20960;-60
2023/05/04 05:22:37;;;;;;;6.60;3.20;;;;;;;;;;5074978;28;20967;-60
2023/05/04 05:25:04;;;;;;;9.77;4.87;;;;;;;;;;5074983;28;20943;-60
2023/05/04 05:27:31;;;;;;;7.13;3.67;;;;;;;;;;5074887;28;20788;-60
2023/05/04 05:29:58;;;;;;;7.43;3.67;;;;;;;;;;5075135;28;20531;-60
2023/05/04 05:32:24;;;;;;;11.10;4.40;;;;;;;;;;5074959;28;20452;-60
2023/05/04 05:34:52;;;;;;;9.70;4.10;;;;;;;;;;5074788;28;20455;-60
2023/05/04 05:37:19;;;;;;;4.27;3.50;;;;;;;;;;5074784;28;20452;-60
2023/05/04 05:39:47;;;;;;;7.00;4.07;;;;;;;;;;5074616;28;20543;-60
2023/05/04 05:42:14;;;;;;;6.10;3.43;;;;;;;;;;5074268;28;20433;-60
2023/05/04 05:44:41;;;;;;;6.80;3.60;;;;;;;;;;5074684;28;20422;-60
2023/05/04 05:47:08;;;;;;;4.33;3.00;;;;;;;;;;5074632;28;20419;-60
2023/05/04 05:49:35;;;;;;;5.70;3.40;;;;;;;;;;5074614;28;20687;-60
2023/05/04 05:52:02;;;;;;;5.93;4.33;;;;;;;;;;5074404;28;20854;-60
2023/05/04 05:54:30;;;;;;;7.03;3.37;;;;;;;;;;5074212;28;20458;-60
2023/05/04 05:56:58;;;;;;;14.83;4.00;;;;;;;;;;5074637;28;20402;-60
2023/05/04 05:59:25;;;;;;;3.60;3.30;;;;;;;;;;5074446;28;20450;-60
2023/05/04 06:01:52;;;;;;;4.17;3.37;;;;;;;;;;5074410;28;20450;-60
2023/05/04 06:04:19;;;;;;;5.90;4.00;;;;;;;;;;5074148;28;20616;-60
2023/05/04 06:06:47;;;;;;;6.97;3.30;;;;;;;;;;5074010;28;20448;-60
2023/05/04 06:09:14;;;;;;;5.73;3.17;;;;;;;;;;5074064;28;20453;-60
2023/05/04 06:11:40;;;;;;;10.80;4.27;;;;;;;;;;5074139;28;20563;-60
2023/05/04 06:14:09;;;;;;;5.87;4.27;;;;;;;;;;5073905;28;21045;-60
2023/05/04 06:16:36;;;;;;;7.67;3.30;;;;;;;;;;5073793;28;20450;-60
2023/05/04 06:19:02;;;;;;;4.30;3.90;;;;;;;;;;5073750;28;20512;-60
2023/05/04 06:21:29;;;;;;;4.10;3.23;;;;;;;;;;5073692;28;20448;-60
2023/05/04 06:23:56;;;;;;;5.67;3.53;;;;;;;;;;5073552;28;20486;-60
2023/05/04 06:26:24;;;;;;;11.83;4.67;;;;;;;;;;5073915;28;20532;-60
2023/05/04 06:28:51;;;;;;;6.80;3.50;;;;;;;;;;5077457;28;20413;-60
2023/05/04 06:31:19;;;;;;;5.00;3.23;;;;;;;;;;5092553;28;20451;-60
2023/05/04 06:33:46;;;;;;;5.20;3.37;;;;;;;;;;5093612;28;20464;-60
2023/05/04 06:36:13;;;;;;;6.50;4.30;;;;;;;;;;5092433;28;20429;-60
2023/05/04 06:38:40;;;;;;;7.17;4.07;;;;;;;;;;5093885;28;20447;-61
2023/05/04 06:41:07;;;;;;;4.73;3.50;;;;;;;;;;5093642;28;21005;-61
2023/05/04 06:43:34;;;;;;;6.73;4.10;;;;;;;;;;5093686;28;20487;-71
2023/05/04 06:46:01;;;;;;;5.57;3.50;;;;;;;;;;5080049;28;20422;-60
2023/05/04 06:48:30;;;;;;;11.63;5.07;;;;;;;;;;5072978;28;20452;-62
2023/05/04 06:50:56;;;;;;;5.57;3.53;;;;;;;;;;5073129;28;20546;-62
2023/05/04 06:53:23;;;;;;;4.33;3.13;;;;;;;;;;5073335;28;20882;-62
2023/05/04 06:55:50;;;;;;;6.83;3.63;;;;;;;;;;5072959;28;20968;-62
2023/05/04 06:58:18;;;;;;;4.60;3.00;;;;;;;;;;5073034;28;20765;-62
2023/05/04 07:00:45;;;;;;;5.77;3.77;;;;;;;;;;5072252;28;20430;-74
2023/05/04 07:03:12;;;;;;;5.80;3.17;;;;;;;;;;5072727;28;20502;-68
2023/05/04 07:05:43;;;;;;;3.40;3.00;;;;;;;;;;5072661;28;20454;-68
2023/05/04 07:08:10;;;;;;;9.30;3.80;;;;;;;;;;5073154;28;20554;-61
2023/05/04 07:10:37;;;;;;;6.20;4.00;;;;;;;;;;5072893;28;20538;-60
2023/05/04 07:13:04;;;;;;;9.67;3.50;;;;;;;;;;5072866;28;20521;-56
2023/05/04 07:15:32;;;;;;;7.20;2.93;;;;;;;;;;5072621;28;20447;-60
2023/05/04 07:18:00;;;;;;;7.47;3.70;;;;;;;;;;5072635;28;20486;-60
2023/05/04 07:20:27;;;;;;;12.43;3.57;;;;;;;;;;5073007;28;20932;-59
2023/05/04 07:22:56;;;;;;;6.90;2.93;;;;;;;;;;5072593;28;20510;-61
2023/05/04 07:25:23;;;;;;;4.33;3.13;;;;;;;;;;5072700;28;20455;-61
2023/05/04 07:27:50;;;;;;;5.77;2.83;;;;;;;;;;5072707;28;20943;-61
2023/05/04 07:30:17;;;;;;;5.37;2.80;;;;;;;;;;5072431;28;20451;-60
2023/05/04 07:32:43;;;;;;;5.70;2.90;;;;;;;;;;5072492;28;20467;-59
2023/05/04 07:35:10;;;;;;;4.83;2.80;;;;;;;;;;5072679;28;20452;-60
2023/05/04 07:37:37;;;;;;;3.23;2.90;;;;;;;;;;5072634;28;20504;-61
2023/05/04 07:40:06;;;;;;;6.40;3.10;;;;;;;;;;5072707;28;20448;-60
2023/05/04 07:42:33;;;;;;;14.83;3.10;;;;;;;;;;5072055;28;20583;-60
2023/05/04 07:45:01;;;;;;;4.93;2.50;;;;;;;;;;5072388;28;20888;-61
2023/05/04 07:47:27;;;;;;;4.53;3.13;;;;;;;;;;5072583;28;20544;-61
2023/05/04 07:49:54;;;;;;;4.70;2.80;;;;;;;;;;5072435;28;20466;-60
2023/05/04 07:52:21;;;;;;;5.70;3.27;;;;;;;;;;5072382;28;20539;-58
2023/05/04 07:54:52;;;;;;;5.43;3.00;;;;;;;;;;5071955;28;20491;-58
2023/05/04 07:57:20;;;;;;;5.33;2.70;;;;;;;;;;5072863;28;20448;-59
2023/05/04 07:59:47;;;;;;;6.10;3.00;;;;;;;;;;5072478;28;20790;-58
2023/05/04 08:02:14;;;;;;;7.07;2.93;;;;;;;;;;5072318;28;20480;-58
2023/05/04 08:04:41;;;;;;;5.10;2.70;;;;;;;;;;5091245;28;20533;-59
2023/05/04 08:07:08;;;;;;;4.93;2.70;;;;;;;;;;5092451;28;20951;-59
2023/05/04 08:09:35;;;;;;;4.53;3.40;;;;;;;;;;5092480;28;20448;-59
2023/05/04 08:12:02;;;;;;;4.43;2.93;;;;;;;;;;5092325;28;20448;-58
2023/05/04 08:14:30;;;;;;;3.80;2.10;;;;;;;;;;5092509;28;20475;-59
2023/05/04 08:16:57;;;;;;;3.33;2.10;;;;;;;;;;5092456;28;20538;-58
2023/05/04 08:19:24;;;;;;;2.90;2.03;;;;;;;;;;5092379;28;20451;-58
2023/05/04 08:21:51;;;;;;;3.47;2.37;;;;;;;;;;5092198;28;21026;-59
2023/05/04 08:24:18;;;;;;;5.80;2.63;;;;;;;;;;5092234;28;20839;-59
2023/05/04 08:26:45;;;;;;;3.27;2.10;;;;;;;;;;5092463;28;20451;-58
2023/05/04 08:29:12;;;;;;;6.57;2.23;;;;;;;;;;5092357;28;20909;-59
2023/05/04 08:31:40;;;;;;;2.57;2.37;;;;;;;;;;5092330;28;20506;-59
2023/05/04 08:34:07;;;;;;;6.90;2.43;;;;;;;;;;5092370;28;20805;-59
2023/05/04 08:36:34;;;;;;;5.50;2.70;;;;;;;;;;5092097;28;20448;-59
2023/05/04 08:39:01;;;;;;;3.33;2.10;;;;;;;;;;5092327;28;20458;-61
2023/05/04 08:41:28;;;;;;;4.33;3.00;;;;;;;;;;5092161;28;20536;-58
2023/05/04 08:43:55;;;;;;;3.47;2.13;;;;;;;;;;5092204;28;20476;-61
2023/05/04 08:46:23;;;;;;;3.93;2.70;;;;;;;;;;5091979;28;20454;-61
2023/05/04 08:48:52;;;;;;;23.63;4.17;;;;;;;;;;5092249;28;20462;-57
2023/05/04 08:51:19;;;;;;;6.13;3.03;;;;;;;;;;5092051;28;20448;-60
2023/05/04 08:53:47;;;;;;;4.33;3.00;;;;;;;;;;5091887;28;20455;-59
2023/05/04 08:56:15;;;;;;;6.10;2.40;;;;;;;;;;5095664;28;20479;-60
2023/05/04 08:58:48;;;;;;;5.83;2.80;;;;;;;;;;5095891;28;20482;-61
2023/05/04 09:01:16;;;;;;;2.80;2.60;;;;;;;;;;5095876;28;20484;-61
2023/05/04 09:03:43;;;;;;;4.00;3.17;;;;;;;;;;5095630;28;20471;-60
2023/05/04 09:06:12;;;;;;;3.67;2.40;;;;;;;;;;5095624;28;20558;-60
2023/05/04 09:08:38;;;;;;;3.47;2.93;;;;;;;;;;5095585;28;20542;-60
2023/05/04 09:11:05;;;;;;;3.33;2.80;;;;;;;;;;5095447;28;20545;-61
2023/05/04 09:13:32;;;;;;;5.93;3.37;;;;;;;;;;5095588;28;20549;-60
2023/05/04 09:15:59;;;;;;;4.80;2.93;;;;;;;;;;5095330;28;20448;-62
2023/05/04 09:18:36;;;;;;;3.07;2.77;;;;;;;;;;5095669;28;20448;-63
2023/05/04 09:21:03;;;;;;;40.53;4.63;;;;;;;;;;5095284;28;20456;-59
2023/05/04 09:23:32;;;;;;;3.50;2.43;;;;;;;;;;5095397;28;20453;-60
2023/05/04 09:25:58;;;;;;;2.93;2.60;;;;;;;;;;5095158;28;20489;-59
2023/05/04 09:28:35;;;;;;;8.17;2.83;;;;;;;;;;5095107;28;20456;-60
2023/05/04 09:31:02;;;;;;;3.43;2.40;;;;;;;;;;5095064;28;20484;-61
2023/05/04 09:33:30;;;;;;;6.27;3.40;;;;;;;;;;5094785;28;20452;-61
2023/05/04 09:35:57;;;;;;;4.10;1.97;;;;;;;;;;5094877;28;20705;-57
2023/05/04 09:38:26;;;;;;;4.23;2.80;;;;;;;;;;5094799;28;20462;-59
2023/05/04 09:40:54;;;;;;;8.03;2.70;;;;;;;;;;5094899;28;20464;-60
2023/05/04 09:43:21;;;;;;;7.27;2.90;;;;;;;;;;5094589;28;20459;-60
2023/05/04 09:45:49;;;;;;;3.50;2.53;;;;;;;;;;5094413;28;20884;-59
2023/05/04 09:48:17;;;;;;;2.40;2.20;;;;;;;;;;5094665;28;20454;-59
2023/05/04 09:50:51;;;;;;;5.10;3.43;;;;;;;;;;5094882;28;20864;-60
2023/05/04 09:53:21;;;;;;;2.50;2.33;;;;;;;;;;5094808;28;20537;-59
2023/05/04 09:55:48;;;;;;;2.63;2.40;;;;;;;;;;5094491;28;20535;-59
2023/05/04 09:58:17;;;;;;;3.40;2.70;;;;;;;;;;5094480;28;20470;-59
2023/05/04 10:00:44;;;;;;;2.90;2.70;;;;;;;;;;5094829;28;20455;-60
2023/05/04 10:03:13;;;;;;;6.87;2.77;;;;;;;;;;5094759;28;20470;-61
2023/05/04 10:05:40;;;;;;;4.67;2.47;;;;;;;;;;5094276;28;20479;-61
2023/05/04 10:08:07;;;;;;;8.63;2.97;;;;;;;;;;5094429;28;20510;-59
2023/05/04 10:10:35;;;;;;;5.10;2.30;;;;;;;;;;5094151;28;20448;-60
2023/05/04 10:13:02;;;;;;;2.03;1.87;;;;;;;;;;5094307;28;20461;-60
2023/05/04 10:15:31;;;;;;;2.40;2.20;;;;;;;;;;5094121;28;20547;-60
2023/05/04 10:18:03;;;;;;;4.90;2.88;;;;;;;;;;5092920;28;20886;-59
2023/05/04 10:20:45;;;;;;;4.13;2.93;;;;;;;;;;5093945;28;20191;-59
2023/05/04 10:23:30;;;;;;;3.50;2.43;;;;;;;;;;5091607;28;20457;-60
2023/05/04 10:26:04;;;;;;;8.17;2.93;;;;;;;;;;5093433;28;20484;-58
2023/05/04 10:28:38;;;;;;;6.67;2.80;;;;;;;;;;5093836;28;20452;-61
2023/05/04 10:31:06;;;;;;;3.67;2.90;;;;;;;;;;5093771;28;20573;-61
2023/05/04 10:33:39;;;;;;;4.03;2.67;;;;;;;;;;5093608;28;20969;-62
2023/05/04 10:36:07;;;;;;;6.30;3.00;;;;;;;;;;5093927;28;20481;-62
2023/05/04 10:38:34;;;;;;;4.60;3.00;;;;;;;;;;5093667;28;20453;-61
2023/05/04 10:41:01;;;;;;;3.57;2.40;;;;;;;;;;5093624;28;20536;-60
2023/05/04 10:43:28;;;;;;;2.97;2.53;;;;;;;;;;5093672;28;20881;-60
2023/05/04 10:45:57;;;;;;;6.33;2.77;;;;;;;;;;5093512;28;20488;-56
2023/05/04 10:48:34;;;;;;;2.97;2.70;;;;;;;;;;5093667;28;20488;-57
2023/05/04 10:51:02;;;;;;;3.60;2.60;;;;;;;;;;5093997;28;20458;-57
2023/05/04 10:53:32;;;;;;;4.03;2.87;;;;;;;;;;5093425;28;20454;-60
2023/05/04 10:55:59;;;;;;;5.77;3.13;;;;;;;;;;5093230;28;20507;-59
2023/05/04 10:58:28;;;;;;;3.53;3.17;;;;;;;;;;5093672;28;20544;-58
2023/05/04 11:00:55;;;;;;;7.10;2.90;;;;;;;;;;5093275;28;20515;-59
2023/05/04 11:03:23;;;;;;;5.00;2.80;;;;;;;;;;5093445;28;20854;-58
2023/05/04 11:05:53;;;;;;;3.67;2.50;;;;;;;;;;5093320;28;20886;-58
2023/05/04 11:08:21;;;;;;;4.20;2.40;;;;;;;;;;5093155;28;20452;-59
2023/05/04 11:10:48;;;;;;;4.47;2.33;;;;;;;;;;5093169;28;20445;-59
2023/05/04 11:13:16;;;;;;;5.83;3.30;;;;;;;;;;5093240;28;20544;-60
2023/05/04 11:15:46;;;;;;;3.70;2.57;;;;;;;;;;5093605;28;20940;-56
2023/05/04 11:18:13;;;;;;;3.10;2.30;;;;;;;;;;5092095;28;20524;-60
2023/05/04 11:20:41;;;;;;;2.50;2.03;;;;;;;;;;5093285;28;20619;-59
2023/05/04 11:23:09;;;;;;;3.57;2.10;;;;;;;;;;5092851;28;20449;-57
2023/05/04 11:25:37;;;;;;;4.93;2.50;;;;;;;;;;5093001;28;20543;-59
2023/05/04 11:28:04;;;;;;;2.50;2.30;;;;;;;;;;5092771;28;20888;-60
2023/05/04 11:30:32;;;;;;;3.30;2.27;;;;;;;;;;5092981;28;20447;-60
2023/05/04 11:33:00;;;;;;;3.20;2.73;;;;;;;;;;5092811;28;20762;-59
2023/05/04 11:35:27;;;;;;;4.03;2.83;;;;;;;;;;5092829;28;20450;-60
2023/05/04 11:37:54;;;;;;;6.73;2.97;;;;;;;;;;5092380;28;20458;-61
2023/05/04 11:40:23;;;;;;;4.00;2.70;;;;;;;;;;5091450;28;20460;-54
2023/05/04 11:42:50;;;;;;;2.97;2.67;;;;;;;;;;5092550;28;20531;-59
2023/05/04 11:45:18;;;;;;;3.40;2.37;;;;;;;;;;5092673;28;20845;-60
2023/05/04 11:47:45;;;;;;;3.83;2.90;;;;;;;;;;5092467;28;20451;-60
2023/05/04 11:50:13;;;;;;;4.30;2.97;;;;;;;;;;5092521;28;20893;-60
2023/05/04 11:52:40;;;;;;;5.20;3.03;;;;;;;;;;5092374;28;20461;-60
2023/05/04 11:55:08;;;;;;;6.90;2.43;;;;;;;;;;5092208;28;20513;-60
2023/05/04 11:57:36;;;;;;;3.60;2.47;;;;;;;;;;5092428;28;20446;-58
2023/05/04 12:00:04;;;;;;;2.87;2.60;;;;;;;;;;5092239;28;20453;-60
2023/05/04 12:02:31;;;;;;;3.70;2.90;;;;;;;;;;5092464;28;20818;-60
2023/05/04 12:04:58;;;;;;;3.83;2.27;;;;;;;;;;5092158;28;20481;-61
2023/05/04 12:07:25;;;;;;;4.03;2.43;;;;;;;;;;5092273;28;20451;-61
2023/05/04 12:09:52;;;;;;;3.95;2.67;;;;;;;;;;5091382;28;20527;-62
2023/05/04 12:12:20;;;;;;;5.43;2.70;;;;;;;;;;5092374;28;20189;-57
2023/05/04 12:14:49;;;;;;;4.87;2.67;;;;;;;;;;5092615;28;20460;-58
2023/05/04 12:17:15;;;;;;;5.37;2.53;;;;;;;;;;5092553;28;20447;-60
2023/05/04 12:19:50;;;;;;;2.43;2.00;;;;;;;;;;5092218;28;20546;-59
2023/05/04 12:22:17;;;;;;;5.20;2.17;;;;;;;;;;5092642;28;20450;-59
2023/05/04 12:24:44;;;;;;;3.27;2.17;;;;;;;;;;5092359;28;20585;-59
2023/05/04 12:27:14;;;;;;;3.77;3.00;;;;;;;;;;5092631;28;20451;-59
2023/05/04 12:29:41;;;;;;;2.13;1.93;;;;;;;;;;5094005;28;20467;-59
2023/05/04 12:32:09;;;;;;;3.20;2.40;;;;;;;;;;5096373;28;20456;-58
2023/05/04 12:34:37;;;;;;;3.77;2.57;;;;;;;;;;5096094;28;20455;-58
2023/05/04 12:37:04;;;;;;;1.93;1.83;;;;;;;;;;5096578;28;20453;-57
2023/05/04 12:39:33;;;;;;;3.57;2.07;;;;;;;;;;5096379;28;20449;-57
2023/05/04 12:42:00;;;;;;;3.30;1.80;;;;;;;;;;5095908;28;20947;-58
2023/05/04 12:44:27;;;;;;;2.43;2.10;;;;;;;;;;5096192;28;20546;-57
2023/05/04 12:46:54;;;;;;;2.30;2.10;;;;;;;;;;5096232;28;20482;-58
2023/05/04 12:49:22;;;;;;;3.63;2.00;;;;;;;;;;5096558;28;20851;-58
2023/05/04 12:51:50;;;;;;;2.47;1.77;;;;;;;;;;5096488;28;20453;-58
2023/05/04 12:54:17;;;;;;;4.77;1.90;;;;;;;;;;5092902;28;20439;-58
2023/05/04 12:56:44;;;;;;;3.50;2.20;;;;;;;;;;5084737;28;20556;-58
2023/05/04 12:59:11;;;;;;;2.50;2.20;;;;;;;;;;5086537;28;20813;-58
2023/05/04 13:01:39;;;;;;;5.13;2.27;;;;;;;;;;5085036;28;20456;-59
2023/05/04 13:04:06;;;;;;;2.17;1.97;;;;;;;;;;5084642;28;20538;-57
2023/05/04 13:06:34;;;;;;;2.77;2.17;;;;;;;;;;5083500;28;20497;-58
2023/05/04 13:09:04;;;;;;;9.17;2.90;;;;;;;;;;5095823;28;20448;-58
2023/05/04 13:11:31;;;;;;;2.47;2.27;;;;;;;;;;5095908;28;20453;-59
2023/05/04 13:13:59;;;;;;;6.93;2.37;;;;;;;;;;5095863;28;20456;-59
2023/05/04 13:16:29;;;;;;;2.57;2.37;;;;;;;;;;5095554;28;20558;-57
2023/05/04 13:18:56;;;;;;;5.50;1.90;;;;;;;;;;5095747;28;20463;-57
2023/05/04 13:21:23;;;;;;;2.37;2.17;;;;;;;;;;5095651;28;20449;-57
2023/05/04 13:23:54;;;;;;;3.07;2.07;;;;;;;;;;5095562;28;20485;-58
2023/05/04 13:26:21;;;;;;;3.40;2.00;;;;;;;;;;5095230;28;20561;-58
2023/05/04 13:28:47;;;;;;;2.50;2.30;;;;;;;;;;5093280;28;20479;-58
2023/05/04 13:31:14;;;;;;;2.97;2.30;;;;;;;;;;5095079;28;20540;-58
2023/05/04 13:33:41;;;;;;;3.43;2.07;;;;;;;;;;5094828;28;20456;-58
2023/05/04 13:36:08;;;;;;;6.93;2.20;;;;;;;;;;5095293;28;20446;-58
2023/05/04 13:38:35;;;;;;;2.13;2.03;;;;;;;;;;5093389;28;20550;-60
2023/05/04 13:41:03;;;;;;;5.00;3.23;;;;;;;;;;5094795;28;20788;-60
2023/05/04 13:43:32;;;;;;;5.53;2.47;;;;;;;;;;5095422;28;20476;-58
2023/05/04 13:46:04;;;;;;;8.23;2.70;;;;;;;;;;5095099;28;20482;-59
2023/05/04 13:48:32;;;;;;;2.43;2.23;;;;;;;;;;5094996;28;20540;-58
2023/05/04 13:50:59;;;;;;;2.90;2.10;;;;;;;;;;5094902;28;20533;-59
2023/05/04 13:53:26;;;;;;;2.20;2.00;;;;;;;;;;5094936;28;20446;-59
2023/05/04 13:55:53;;;;;;;3.13;2.40;;;;;;;;;;5094510;28;20505;-59
2023/05/04 13:58:21;;;;;;;2.63;1.90;;;;;;;;;;5095134;28;20545;-59
2023/05/04 14:00:48;;;;;;;3.70;2.50;;;;;;;;;;5095108;28;20475;-59
2023/05/04 14:03:15;;;;;;;2.53;1.93;;;;;;;;;;5094897;28;20538;-59
2023/05/04 14:05:42;;;;;;;5.13;2.83;;;;;;;;;;5094747;28;20482;-59
2023/05/04 14:08:09;;;;;;;3.80;2.50;;;;;;;;;;5094751;28;20452;-59
2023/05/04 14:10:36;;;;;;;2.63;2.00;;;;;;;;;;5094505;28;20968;-59
2023/05/04 14:13:03;;;;;;;2.57;2.00;;;;;;;;;;5094891;28;20520;-59
2023/05/04 14:15:32;;;;;;;3.83;2.00;;;;;;;;;;5094755;28;20442;-59
2023/05/04 14:17:58;;;;;;;2.37;1.90;;;;;;;;;;5094847;28;20756;-59
2023/05/04 14:20:25;;;;;;;1.83;1.73;;;;;;;;;;5094656;28;20490;-59
2023/05/04 14:22:52;;;;;;;2.90;1.97;;;;;;;;;;5094410;28;20447;-59
2023/05/04 14:25:20;;;;;;;2.50;2.30;;;;;;;;;;5094599;28;20493;-59
2023/05/04 14:27:47;;;;;;;4.97;2.27;;;;;;;;;;5094419;28;20506;-59
2023/05/04 14:30:14;;;;;;;3.87;2.13;;;;;;;;;;5094298;28;20454;-59
2023/05/04 14:32:43;;;;;;;5.70;1.77;;;;;;;;;;5094287;28;20530;-59
2023/05/04 14:35:11;;;;;;;2.00;1.80;;;;;;;;;;5094278;28;20489;-59
2023/05/04 14:37:41;;;;;;;4.03;2.40;;;;;;;;;;5094135;28;20458;-59
2023/05/04 14:40:09;;;;;;;3.67;2.07;;;;;;;;;;5094274;28;20504;-59
2023/05/04 14:42:37;;;;;;;2.10;1.90;;;;;;;;;;5094183;28;20640;-60
2023/05/04 14:45:04;;;;;;;2.13;1.93;;;;;;;;;;5094074;28;20447;-59